createdAt,value
2023-02-26T00:00:15.147Z,72.34
2023-02-26T00:02:42.889Z,72.63
2023-02-26T00:05:10.340Z,72.50
2023-02-26T00:07:38.015Z,72.83
2023-02-26T00:10:10.849Z,72.94
2023-02-26T00:12:38.110Z,72.60
2023-02-26T00:15:06.469Z,72.70
2023-02-26T00:17:57.857Z,72.70
2023-02-26T00:20:26.544Z,72.89
2023-02-26T00:22:53.571Z,73.32
2023-02-26T00:25:20.413Z,72.93
2023-02-26T00:27:47.438Z,72.93
2023-02-26T00:30:14.428Z,73.04
2023-02-26T00:32:41.944Z,73.10
2023-02-26T00:35:13.083Z,72.84
2023-02-26T00:38:09.615Z,73.01
2023-02-26T00:40:46.826Z,72.65
2023-02-26T00:43:26.822Z,72.80
2023-02-26T00:46:02.414Z,72.24
2023-02-26T00:48:50.854Z,73.28
2023-02-26T00:51:52.448Z,73.08
2023-02-26T00:54:27.617Z,73.26
2023-02-26T00:56:56.179Z,73.09
2023-02-26T00:59:23.534Z,73.19
2023-02-26T01:01:51.659Z,73.19
2023-02-26T01:04:21.857Z,73.19
2023-02-26T01:06:54.739Z,72.85
2023-02-26T01:09:36.041Z,72.88
2023-02-26T01:12:11.281Z,73.45
2023-02-26T01:14:38.344Z,73.20
2023-02-26T01:17:21.386Z,73.22
2023-02-26T01:19:56.702Z,73.01
2023-02-26T01:22:25.770Z,72.77
2023-02-26T01:25:11.472Z,73.16
2023-02-26T01:27:39.199Z,72.84
2023-02-26T01:30:08.905Z,72.79
2023-02-26T01:32:54.041Z,73.33
2023-02-26T01:35:39.634Z,73.34
2023-02-26T01:38:31.395Z,73.04
2023-02-26T01:41:16.502Z,73.30
2023-02-26T01:44:07.832Z,73.19
2023-02-26T01:46:43.483Z,72.92
2023-02-26T01:49:17.121Z,73.43
2023-02-26T01:52:18.207Z,73.50
2023-02-26T01:54:44.862Z,73.29
2023-02-26T01:57:17.300Z,73.85
2023-02-26T01:59:47.627Z,72.93
2023-02-26T02:02:19.572Z,73.07
2023-02-26T02:04:47.535Z,73.15
2023-02-26T02:07:14.894Z,73.09
2023-02-26T02:09:42.864Z,73.08
2023-02-26T02:12:37.421Z,72.92
2023-02-26T02:15:49.997Z,73.50
2023-02-26T02:18:31.874Z,73.52
2023-02-26T02:21:30.059Z,73.34
2023-02-26T02:24:31.807Z,72.97
2023-02-26T02:27:19.924Z,72.81
2023-02-26T02:29:59.876Z,72.85
2023-02-26T02:32:33.802Z,72.74
2023-02-26T02:35:13.943Z,73.00
2023-02-26T02:38:14.361Z,73.45
2023-02-26T02:40:46.429Z,73.55
2023-02-26T02:43:34.511Z,72.77
2023-02-26T02:46:06.375Z,72.92
2023-02-26T02:48:39.174Z,73.05
2023-02-26T02:51:08.551Z,73.24
2023-02-26T02:53:44.974Z,73.55
2023-02-26T02:56:22.107Z,73.54
2023-02-26T02:58:55.190Z,73.33
2023-02-26T03:01:25.929Z,73.06
2023-02-26T03:04:11.588Z,73.64
2023-02-26T03:06:38.745Z,73.57
2023-02-26T03:09:07.146Z,73.18
2023-02-26T03:11:34.517Z,73.26
2023-02-26T03:14:02.007Z,73.29
2023-02-26T03:17:00.404Z,73.54
2023-02-26T03:19:48.637Z,73.51
2023-02-26T03:22:22.045Z,73.18
2023-02-26T03:24:58.426Z,73.44
2023-02-26T03:28:00.605Z,73.70
2023-02-26T03:30:44.611Z,73.91
2023-02-26T03:33:25.286Z,73.71
2023-02-26T03:36:34.746Z,73.71
2023-02-26T03:39:07.767Z,72.99
2023-02-26T03:41:44.625Z,73.20
2023-02-26T03:44:24.422Z,73.45
2023-02-26T03:46:57.031Z,73.45
2023-02-26T03:49:31.826Z,72.96
2023-02-26T03:52:01.090Z,73.11
2023-02-26T03:54:33.607Z,73.16
2023-02-26T03:57:00.358Z,73.58
2023-02-26T03:59:27.235Z,73.44
2023-02-26T04:02:02.234Z,73.32
2023-02-26T04:04:42.622Z,73.47
2023-02-26T04:07:14.478Z,72.87
2023-02-26T04:09:51.940Z,73.40
2023-02-26T04:12:29.041Z,73.17
2023-02-26T04:14:56.860Z,73.38
2023-02-26T04:17:23.624Z,73.60
2023-02-26T04:19:50.403Z,73.15
2023-02-26T04:22:17.125Z,73.57
2023-02-26T04:24:43.814Z,73.81
2023-02-26T04:27:10.477Z,73.22
2023-02-26T04:29:37.750Z,73.16
2023-02-26T04:32:04.596Z,73.67
2023-02-26T04:34:31.399Z,73.34
2023-02-26T04:36:58.254Z,73.52
2023-02-26T04:39:24.955Z,73.60
2023-02-26T04:41:51.617Z,73.19
2023-02-26T04:44:18.814Z,73.36
2023-02-26T04:46:45.498Z,73.54
2023-02-26T04:49:12.250Z,73.37
2023-02-26T04:51:38.889Z,73.25
2023-02-26T04:54:05.624Z,73.14
2023-02-26T04:56:33.587Z,73.65
2023-02-26T04:59:00.315Z,73.37
2023-02-26T05:01:27.082Z,73.66
2023-02-26T05:03:53.812Z,73.44
2023-02-26T05:06:20.552Z,73.63
2023-02-26T05:08:47.209Z,73.27
2023-02-26T05:11:14.043Z,73.07
2023-02-26T05:13:40.769Z,73.25
2023-02-26T05:16:08.371Z,73.37
2023-02-26T05:18:35.273Z,73.20
2023-02-26T05:21:02.339Z,73.39
2023-02-26T05:23:29.185Z,73.41
2023-02-26T05:25:57.237Z,73.25
2023-02-26T05:28:25.449Z,73.64
2023-02-26T05:30:52.553Z,73.52
2023-02-26T05:33:19.609Z,73.53
2023-02-26T05:35:47.084Z,73.54
2023-02-26T05:38:13.985Z,73.48
2023-02-26T05:40:40.885Z,73.47
2023-02-26T05:43:07.559Z,73.04
2023-02-26T05:45:34.302Z,73.66
2023-02-26T05:48:01.258Z,73.13
2023-02-26T05:50:28.150Z,73.07
2023-02-26T05:52:54.829Z,73.47
2023-02-26T05:55:21.463Z,73.30
2023-02-26T05:57:48.149Z,73.22
2023-02-26T06:00:15.184Z,73.61
2023-02-26T06:02:42.343Z,73.37
2023-02-26T06:05:09.772Z,73.45
2023-02-26T06:07:36.405Z,73.19
2023-02-26T06:10:03.138Z,73.37
2023-02-26T06:12:29.780Z,73.39
2023-02-26T06:14:56.442Z,73.73
2023-02-26T06:17:23.196Z,73.40
2023-02-26T06:19:49.928Z,73.47
2023-02-26T06:22:16.693Z,72.92
2023-02-26T06:24:43.644Z,73.60
2023-02-26T06:27:10.433Z,73.10
2023-02-26T06:29:37.723Z,73.14
2023-02-26T06:32:05.458Z,73.41
2023-02-26T06:34:32.958Z,73.56
2023-02-26T06:36:59.601Z,73.48
2023-02-26T06:39:26.358Z,72.98
2023-02-26T06:41:53.125Z,73.07
2023-02-26T06:44:19.784Z,73.01
2023-02-26T06:46:46.485Z,73.03
2023-02-26T06:49:13.186Z,73.34
2023-02-26T06:51:39.884Z,73.42
2023-02-26T06:54:06.614Z,72.69
2023-02-26T06:56:33.361Z,73.81
2023-02-26T06:59:00.052Z,73.49
2023-02-26T07:01:27.374Z,73.33
2023-02-26T07:03:54.254Z,73.01
2023-02-26T07:06:27.508Z,73.38
2023-02-26T07:08:55.534Z,73.88
2023-02-26T07:11:22.565Z,73.79
2023-02-26T07:13:49.591Z,73.25
2023-02-26T07:16:16.250Z,73.38
2023-02-26T07:18:42.984Z,73.60
2023-02-26T07:21:09.708Z,73.24
2023-02-26T07:23:36.445Z,73.23
2023-02-26T07:26:03.161Z,73.71
2023-02-26T07:28:29.892Z,73.01
2023-02-26T07:30:57.685Z,73.60
2023-02-26T07:33:26.640Z,73.62
2023-02-26T07:35:53.338Z,73.29
2023-02-26T07:38:20.353Z,73.49
2023-02-26T07:40:47.481Z,73.21
2023-02-26T07:43:14.361Z,73.19
2023-02-26T07:45:41.050Z,73.72
2023-02-26T07:48:08.029Z,73.68
2023-02-26T07:50:34.756Z,73.62
2023-02-26T07:53:01.509Z,73.51
2023-02-26T07:55:28.568Z,73.44
2023-02-26T07:57:55.316Z,73.46
2023-02-26T08:00:22.251Z,73.30
2023-02-26T08:02:48.970Z,73.46
2023-02-26T08:05:15.641Z,73.43
2023-02-26T08:07:42.342Z,73.59
2023-02-26T08:10:10.243Z,73.46
2023-02-26T08:12:37.308Z,72.96
2023-02-26T08:15:05.236Z,73.41
2023-02-26T08:17:31.936Z,73.61
2023-02-26T08:19:58.566Z,73.02
2023-02-26T08:22:25.337Z,73.52
2023-02-26T08:24:51.990Z,73.06
2023-02-26T08:27:18.808Z,73.42
2023-02-26T08:29:46.459Z,73.24
2023-02-26T08:32:15.837Z,73.34
2023-02-26T08:34:42.646Z,73.24
2023-02-26T08:37:11.826Z,73.27
2023-02-26T08:39:39.462Z,73.47
2023-02-26T08:42:07.592Z,73.33
2023-02-26T08:44:34.324Z,73.29
2023-02-26T08:47:01.317Z,73.25
2023-02-26T08:49:27.957Z,73.51
2023-02-26T08:51:54.736Z,73.07
2023-02-26T08:54:21.459Z,73.17
2023-02-26T08:56:48.200Z,72.98
2023-02-26T08:59:15.215Z,73.04
2023-02-26T09:01:41.944Z,73.21
2023-02-26T09:04:08.663Z,72.97
2023-02-26T09:06:35.415Z,73.07
2023-02-26T09:09:02.069Z,73.18
2023-02-26T09:11:30.829Z,73.12
2023-02-26T09:13:59.117Z,73.07
2023-02-26T09:16:27.125Z,73.37
2023-02-26T09:18:54.006Z,73.39
2023-02-26T09:21:20.692Z,73.14
2023-02-26T09:23:47.541Z,72.91
2023-02-26T09:26:14.878Z,73.09
2023-02-26T09:28:42.137Z,72.88
2023-02-26T09:31:08.969Z,72.66
2023-02-26T09:33:36.674Z,73.07
2023-02-26T09:36:03.978Z,72.94
2023-02-26T09:38:30.735Z,73.01
2023-02-26T09:41:06.002Z,72.99
2023-02-26T09:43:44.640Z,72.87
2023-02-26T09:46:16.955Z,72.62
2023-02-26T09:48:45.945Z,73.00
2023-02-26T09:51:20.193Z,72.75
2023-02-26T09:53:50.461Z,72.77
2023-02-26T09:56:21.946Z,72.49
2023-02-26T09:58:49.560Z,72.39
2023-02-26T10:01:30.116Z,72.27
2023-02-26T10:04:06.670Z,72.21
2023-02-26T10:06:41.721Z,72.54
2023-02-26T10:09:16.939Z,72.15
2023-02-26T10:11:52.359Z,71.97
2023-02-26T10:14:40.219Z,72.10
2023-02-26T10:17:19.724Z,71.37
2023-02-26T10:19:51.998Z,71.74
2023-02-26T10:22:28.551Z,71.73
2023-02-26T10:25:09.745Z,71.75
2023-02-26T10:27:57.534Z,71.47
2023-02-26T10:30:40.748Z,71.75
2023-02-26T10:33:14.049Z,71.75
2023-02-26T10:35:47.626Z,71.28
2023-02-26T10:38:18.867Z,71.30
2023-02-26T10:41:11.916Z,71.45
2023-02-26T10:43:45.225Z,71.53
2023-02-26T10:46:40.295Z,70.95
2023-02-26T10:49:22.129Z,70.50
2023-02-26T10:51:52.809Z,70.89
2023-02-26T10:54:22.367Z,70.53
2023-02-26T10:56:49.061Z,70.45
2023-02-26T10:59:16.821Z,70.23
2023-02-26T11:01:44.155Z,70.74
2023-02-26T11:04:23.466Z,70.62
2023-02-26T11:06:55.227Z,70.42
2023-02-26T11:09:39.411Z,70.16
2023-02-26T11:12:12.882Z,70.50
2023-02-26T11:14:40.857Z,70.37
2023-02-26T11:17:19.535Z,70.05
2023-02-26T11:20:26.815Z,69.42
2023-02-26T11:22:58.266Z,69.46
2023-02-26T11:25:28.103Z,69.99
2023-02-26T11:28:07.559Z,69.82
2023-02-26T11:30:39.020Z,69.91
2023-02-26T11:33:23.756Z,70.17
2023-02-26T11:35:51.360Z,69.96
2023-02-26T11:38:25.637Z,69.85
2023-02-26T11:40:56.571Z,69.83
2023-02-26T11:43:25.810Z,69.24
2023-02-26T11:45:59.663Z,69.11
2023-02-26T11:48:47.268Z,69.11
2023-02-26T11:51:22.880Z,69.26
2023-02-26T11:53:55.254Z,69.04
2023-02-26T11:56:42.878Z,69.18
2023-02-26T11:59:24.961Z,68.81
2023-02-26T12:01:53.368Z,68.89
2023-02-26T12:04:27.249Z,69.05
2023-02-26T12:06:56.125Z,68.86
2023-02-26T12:09:25.557Z,68.91
2023-02-26T12:12:00.183Z,68.81
2023-02-26T12:15:03.542Z,68.72
2023-02-26T12:17:36.264Z,68.59
2023-02-26T12:20:15.439Z,68.31
2023-02-26T12:23:19.292Z,68.24
2023-02-26T12:25:45.906Z,67.94
2023-02-26T12:28:21.331Z,68.09
2023-02-26T12:31:15.853Z,68.10
2023-02-26T12:34:07.198Z,67.86
2023-02-26T12:37:02.530Z,68.02
2023-02-26T12:39:57.325Z,67.82
2023-02-26T12:43:00.226Z,67.87
2023-02-26T12:45:47.330Z,67.52
2023-02-26T12:48:54.762Z,67.65
2023-02-26T12:51:57.967Z,67.81
2023-02-26T12:54:47.665Z,67.30
2023-02-26T12:57:51.709Z,67.50
2023-02-26T13:01:10.157Z,67.89
2023-02-26T13:04:11.547Z,67.94
2023-02-26T13:06:48.126Z,68.19
2023-02-26T13:09:20.587Z,68.03
2023-02-26T13:12:24.278Z,68.00
2023-02-26T13:15:04.110Z,68.09
2023-02-26T13:17:37.588Z,68.03
2023-02-26T13:20:15.529Z,67.69
2023-02-26T13:22:50.273Z,68.16
2023-02-26T13:25:33.559Z,67.94
2023-02-26T13:28:03.542Z,68.14
2023-02-26T13:30:38.806Z,67.96
2023-02-26T13:33:08.454Z,67.88
2023-02-26T13:35:39.397Z,67.78
2023-02-26T13:38:21.604Z,67.44
2023-02-26T13:40:57.137Z,67.78
2023-02-26T13:43:57.743Z,67.54
2023-02-26T13:46:56.217Z,67.85
2023-02-26T13:49:57.297Z,67.77
2023-02-26T13:52:36.307Z,67.67
2023-02-26T13:55:05.991Z,67.98
2023-02-26T13:57:32.600Z,67.55
2023-02-26T14:00:12.633Z,67.68
2023-02-26T14:02:57.904Z,67.54
2023-02-26T14:05:32.985Z,67.34
2023-02-26T14:08:18.935Z,67.54
2023-02-26T14:10:54.293Z,67.77
2023-02-26T14:13:40.236Z,67.12
2023-02-26T14:16:44.602Z,67.45
2023-02-26T14:20:05.383Z,67.88
2023-02-26T14:22:32.143Z,67.79
2023-02-26T14:25:05.783Z,67.42
2023-02-26T14:27:41.271Z,67.33
2023-02-26T14:30:10.722Z,67.59
2023-02-26T14:33:07.395Z,67.35
2023-02-26T14:35:54.683Z,67.56
2023-02-26T14:38:28.731Z,67.05
2023-02-26T14:41:05.586Z,67.30
2023-02-26T14:44:03.523Z,67.05
2023-02-26T14:46:30.685Z,67.30
2023-02-26T14:48:57.929Z,67.46
2023-02-26T14:51:45.017Z,66.94
2023-02-26T14:54:39.178Z,66.99
2023-02-26T14:57:36.189Z,66.79
2023-02-26T15:00:13.258Z,67.48
2023-02-26T15:03:17.234Z,66.99
2023-02-26T15:06:17.965Z,67.63
2023-02-26T15:08:47.604Z,67.30
2023-02-26T15:11:42.352Z,67.34
2023-02-26T15:14:26.834Z,67.23
2023-02-26T15:17:12.322Z,67.17
2023-02-26T15:20:10.752Z,67.51
2023-02-26T15:23:04.562Z,67.60
2023-02-26T15:25:41.133Z,67.59
2023-02-26T15:28:13.638Z,67.29
2023-02-26T15:30:43.572Z,67.48
2023-02-26T15:33:13.847Z,67.69
2023-02-26T15:35:43.501Z,67.67
2023-02-26T15:38:10.756Z,68.01
2023-02-26T15:40:38.445Z,67.98
2023-02-26T15:43:08.184Z,67.82
2023-02-26T15:45:38.194Z,67.91
2023-02-26T15:48:08.772Z,67.90
2023-02-26T15:50:40.749Z,67.84
2023-02-26T15:53:12.549Z,67.95
2023-02-26T15:55:47.016Z,68.11
2023-02-26T15:58:22.115Z,67.88
2023-02-26T16:00:54.236Z,67.91
2023-02-26T16:03:49.842Z,67.90
2023-02-26T16:06:20.559Z,68.14
2023-02-26T16:08:47.333Z,67.88
2023-02-26T16:11:15.789Z,68.28
2023-02-26T16:13:44.211Z,68.02
2023-02-26T16:16:21.937Z,68.05
2023-02-26T16:18:48.699Z,68.36
2023-02-26T16:21:41.977Z,68.03
2023-02-26T16:24:15.428Z,68.19
2023-02-26T16:27:04.906Z,68.10
2023-02-26T16:29:35.812Z,68.07
2023-02-26T16:32:04.684Z,68.42
2023-02-26T16:34:43.510Z,68.30
2023-02-26T16:37:20.677Z,68.27
2023-02-26T16:39:51.455Z,68.02
2023-02-26T16:42:50.646Z,68.38
2023-02-26T16:45:33.002Z,68.33
2023-02-26T16:48:00.088Z,68.32
2023-02-26T16:50:32.932Z,68.36
2023-02-26T16:53:15.338Z,68.33
2023-02-26T16:55:46.915Z,68.22
2023-02-26T16:58:16.080Z,68.56
2023-02-26T17:00:50.617Z,68.71
2023-02-26T17:03:24.970Z,68.72
2023-02-26T17:06:02.262Z,68.63
2023-02-26T17:08:34.388Z,68.48
2023-02-26T17:11:02.693Z,68.76
2023-02-26T17:13:31.750Z,68.85
2023-02-26T17:16:01.381Z,68.79
2023-02-26T17:18:28.465Z,68.62
2023-02-26T17:20:55.530Z,68.90
2023-02-26T17:23:31.623Z,68.87
2023-02-26T17:26:02.381Z,68.67
2023-02-26T17:28:37.024Z,68.79
2023-02-26T17:31:04.217Z,68.81
2023-02-26T17:33:30.907Z,68.87
2023-02-26T17:36:01.045Z,69.24
2023-02-26T17:38:28.236Z,69.05
2023-02-26T17:40:55.746Z,69.21
2023-02-26T17:43:23.328Z,69.27
2023-02-26T17:45:50.324Z,69.18
2023-02-26T17:48:17.736Z,69.30
2023-02-26T17:50:53.016Z,69.44
2023-02-26T17:53:22.329Z,69.50
2023-02-26T17:55:52.438Z,69.56
2023-02-26T17:58:26.868Z,69.56
2023-02-26T18:00:54.095Z,69.64
2023-02-26T18:03:21.632Z,69.26
2023-02-26T18:05:49.914Z,69.53
2023-02-26T18:08:31.438Z,69.43
2023-02-26T18:10:59.506Z,69.61
2023-02-26T18:13:27.181Z,69.59
2023-02-26T18:15:56.604Z,70.12
2023-02-26T18:18:24.988Z,70.01
2023-02-26T18:20:53.590Z,69.78
2023-02-26T18:23:20.521Z,69.98
2023-02-26T18:25:49.889Z,70.12
2023-02-26T18:28:26.241Z,70.19
2023-02-26T18:30:54.418Z,70.11
2023-02-26T18:33:21.858Z,70.37
2023-02-26T18:35:53.245Z,70.05
2023-02-26T18:38:22.729Z,70.04
2023-02-26T18:40:50.388Z,70.01
2023-02-26T18:43:17.193Z,70.37
2023-02-26T18:45:46.941Z,70.11
2023-02-26T18:48:17.286Z,70.63
2023-02-26T18:50:48.192Z,70.54
2023-02-26T18:53:17.297Z,70.25
2023-02-26T18:55:44.309Z,70.54
2023-02-26T18:58:11.716Z,70.22
2023-02-26T19:00:38.471Z,70.12
2023-02-26T19:03:05.137Z,70.53
2023-02-26T19:05:31.807Z,70.03
2023-02-26T19:07:59.827Z,70.45
2023-02-26T19:10:29.564Z,70.12
2023-02-26T19:12:56.502Z,70.08
2023-02-26T19:15:24.441Z,69.97
2023-02-26T19:17:51.882Z,70.20
2023-02-26T19:20:18.610Z,70.23
2023-02-26T19:22:46.618Z,70.16
2023-02-26T19:25:13.315Z,69.90
2023-02-26T19:27:40.340Z,70.14
2023-02-26T19:30:08.439Z,70.14
2023-02-26T19:32:35.338Z,70.04
2023-02-26T19:35:02.126Z,70.41
2023-02-26T19:37:28.960Z,70.02
2023-02-26T19:39:55.627Z,70.31
2023-02-26T19:42:24.385Z,70.12
2023-02-26T19:44:51.575Z,70.55
2023-02-26T19:47:18.210Z,70.29
2023-02-26T19:49:44.874Z,70.04
2023-02-26T19:52:11.995Z,70.09
2023-02-26T19:54:38.650Z,70.32
2023-02-26T19:57:05.428Z,70.07
2023-02-26T19:59:32.385Z,70.29
2023-02-26T20:01:59.581Z,70.02
2023-02-26T20:04:26.239Z,70.30
2023-02-26T20:06:53.324Z,70.47
2023-02-26T20:09:20.323Z,70.46
2023-02-26T20:11:47.079Z,70.26
2023-02-26T20:14:13.773Z,70.24
2023-02-26T20:16:41.381Z,70.16
2023-02-26T20:19:08.085Z,70.22
2023-02-26T20:21:34.914Z,70.68
2023-02-26T20:24:01.564Z,70.45
2023-02-26T20:26:28.207Z,71.04
2023-02-26T20:28:54.867Z,71.00
2023-02-26T20:31:21.780Z,70.74
2023-02-26T20:33:48.589Z,70.59
2023-02-26T20:36:15.305Z,70.62
2023-02-26T20:38:42.947Z,71.06
2023-02-26T20:41:09.685Z,71.18
2023-02-26T20:43:36.422Z,70.92
2023-02-26T20:46:03.957Z,70.83
2023-02-26T20:48:31.155Z,70.96
2023-02-26T20:51:02.844Z,71.44
2023-02-26T20:53:29.544Z,70.83
2023-02-26T20:55:56.655Z,70.62
2023-02-26T20:58:26.496Z,71.20
2023-02-26T21:00:57.573Z,71.01
2023-02-26T21:03:24.867Z,71.31
2023-02-26T21:05:51.642Z,71.53
2023-02-26T21:08:18.378Z,71.46
2023-02-26T21:10:45.376Z,71.14
2023-02-26T21:13:12.110Z,71.38
2023-02-26T21:15:38.759Z,70.85
2023-02-26T21:18:05.495Z,71.37
2023-02-26T21:20:32.221Z,71.45
2023-02-26T21:22:58.934Z,71.67
2023-02-26T21:25:25.769Z,71.89
2023-02-26T21:27:52.504Z,71.96
2023-02-26T21:30:19.995Z,72.13
2023-02-26T21:32:46.668Z,71.81
2023-02-26T21:35:16.137Z,71.72
2023-02-26T21:37:46.869Z,71.75
2023-02-26T21:40:15.706Z,71.87
2023-02-26T21:42:43.476Z,71.73
2023-02-26T21:45:10.793Z,72.29
2023-02-26T21:47:37.751Z,72.45
2023-02-26T21:50:06.149Z,71.87
2023-02-26T21:52:32.991Z,71.92
2023-02-26T21:54:59.719Z,71.77
2023-02-26T21:57:27.225Z,71.76
2023-02-26T21:59:54.135Z,72.04
2023-02-26T22:02:21.036Z,71.50
2023-02-26T22:04:47.779Z,72.15
2023-02-26T22:07:14.518Z,71.97
2023-02-26T22:09:41.891Z,71.70
2023-02-26T22:12:08.623Z,71.88
2023-02-26T22:14:35.371Z,71.97
2023-02-26T22:17:02.142Z,71.65
2023-02-26T22:19:28.781Z,71.65
2023-02-26T22:21:55.421Z,72.15
2023-02-26T22:24:22.148Z,71.96
2023-02-26T22:26:49.492Z,72.24
2023-02-26T22:29:18.287Z,71.63
2023-02-26T22:31:47.531Z,71.85
2023-02-26T22:34:14.438Z,72.30
2023-02-26T22:36:41.237Z,72.16
2023-02-26T22:39:08.056Z,72.09
2023-02-26T22:41:35.830Z,72.03
2023-02-26T22:44:02.916Z,72.13
2023-02-26T22:46:29.604Z,72.02
2023-02-26T22:48:56.826Z,71.74
2023-02-26T22:51:24.087Z,71.84
2023-02-26T22:53:53.105Z,72.46
2023-02-26T22:56:19.765Z,72.50
2023-02-26T22:58:46.571Z,72.78
2023-02-26T23:01:13.458Z,72.29
2023-02-26T23:03:40.151Z,72.74
2023-02-26T23:06:07.934Z,72.41
2023-02-26T23:08:34.932Z,72.68
2023-02-26T23:11:03.282Z,72.53
2023-02-26T23:13:34.062Z,72.23
2023-02-26T23:16:02.474Z,72.52
2023-02-26T23:18:34.358Z,72.69
2023-02-26T23:21:01.013Z,72.55
2023-02-26T23:23:27.709Z,72.53
2023-02-26T23:25:54.793Z,72.31
2023-02-26T23:28:23.163Z,72.08
2023-02-26T23:30:50.921Z,72.02
2023-02-26T23:33:17.593Z,71.95
2023-02-26T23:35:46.769Z,72.65
2023-02-26T23:38:13.556Z,72.22
2023-02-26T23:40:40.242Z,72.92
2023-02-26T23:43:06.887Z,72.65
2023-02-26T23:45:33.640Z,72.85
2023-02-26T23:48:00.591Z,72.77
2023-02-26T23:50:27.325Z,72.88
2023-02-26T23:52:56.815Z,72.88
2023-02-26T23:55:23.463Z,72.87
2023-02-26T23:57:50.170Z,72.34
